Time;durP1;ratioP1;P1;durP2;ratioP2;P2;SDS_P1;SDS_P2;PMS_P1;PMS_P2;Temp;Humidity;BMP_temperature;BMP_pressure;BME280_temperature;BME280_humidity;BME280_pressure;Samples;Min_cycle;Max_cycle;Signal;HPM_P1;HPM_P2
2022/07/03 00:01:56;;;;;;;;;2.00;2.00;;;;;21.06;45.42;101346.16;5067088;28;45239;-80
2022/07/03 00:04:22;;;;;;;;;1.00;1.00;;;;;21.04;45.60;101340.81;5069121;28;45454;-81
2022/07/03 00:06:48;;;;;;;;;1.00;1.00;;;;;21.11;45.39;101355.97;5068027;28;45817;-80
2022/07/03 00:09:14;;;;;;;;;0.75;0.75;;;;;21.03;45.34;101333.69;5068267;28;45103;-80
2022/07/03 00:11:40;;;;;;;;;1.00;1.00;;;;;20.92;45.13;101323.88;5068108;28;45748;-81
2022/07/03 00:14:05;;;;;;;;;1.00;1.00;;;;;20.95;45.36;101327.44;5049263;28;45168;-80
2022/07/03 00:16:31;;;;;;;;;1.25;1.25;;;;;20.95;44.53;101332.78;5067911;28;45503;-81
2022/07/03 00:18:56;;;;;;;;;2.00;2.00;;;;;21.00;45.10;101348.81;5067136;28;45096;-80
2022/07/03 00:21:48;;;;;;;;;2.75;1.75;;;;;20.89;44.88;101327.44;5067982;28;44999;-81
2022/07/03 00:24:32;;;;;;;;;1.00;1.00;;;;;20.66;45.47;101294.44;5053075;28;45278;-81
2022/07/03 00:26:59;;;;;;;;;1.00;1.00;;;;;20.96;45.76;101353.28;5067521;28;45961;-80
2022/07/03 00:29:30;;;;;;;;;1.00;1.00;;;;;20.74;45.83;101319.38;5067447;28;45071;-81
2022/07/03 00:31:57;;;;;;;;;1.25;1.00;;;;;20.79;45.53;101336.34;5069191;28;45052;-81
2022/07/03 00:34:25;;;;;;;;;1.00;1.00;;;;;20.78;45.08;101339.88;5052814;28;45089;-80
2022/07/03 00:36:52;;;;;;;;;1.00;1.00;;;;;20.82;45.28;101347.00;5048946;28;47096;-80
2022/07/03 00:39:17;;;;;;;;;1.50;1.50;;;;;20.66;45.76;101327.38;5065636;28;45857;-81
2022/07/03 00:41:46;;;;;;;;;1.00;1.00;;;;;20.63;45.46;101321.13;5070956;28;45165;-80
2022/07/03 00:44:11;;;;;;;;;1.25;1.00;;;;;20.72;45.68;101345.19;5071302;28;45174;-80
2022/07/03 00:46:38;;;;;;;;;1.00;1.00;;;;;20.61;45.20;101331.81;5071064;28;45093;-80
2022/07/03 00:49:05;;;;;;;;;1.00;1.00;;;;;20.63;46.58;101342.50;5071104;28;45490;-80
2022/07/03 00:51:34;;;;;;;;;1.00;1.00;;;;;20.55;45.81;101332.69;5070614;28;45131;-80
2022/07/03 00:54:03;;;;;;;;;2.00;1.75;;;;;20.45;45.83;101327.28;5070097;28;45210;-81
2022/07/03 00:56:30;;;;;;;;;2.00;2.00;;;;;20.52;46.42;101342.47;5071127;28;45719;-80
2022/07/03 00:58:59;;;;;;;;;1.50;1.00;;;;;20.18;46.27;101296.03;5070944;28;45671;-81
2022/07/03 01:01:27;;;;;;;;;1.00;1.00;;;;;20.43;46.15;101348.63;5070938;28;44982;-80
2022/07/03 01:04:08;;;;;;;;;1.50;1.50;;;;;20.31;46.41;101332.56;5071083;28;45288;-80
2022/07/03 01:06:44;;;;;;;;;1.00;1.00;;;;;20.24;46.52;101330.75;5070661;28;45685;-81
2022/07/03 01:09:10;;;;;;;;;3.00;3.00;;;;;20.14;47.37;101319.13;5070959;28;45489;-80
2022/07/03 01:11:39;;;;;;;;;2.75;1.50;;;;;20.26;47.89;101353.03;5070711;28;44879;-81
2022/07/03 01:14:13;;;;;;;;;2.00;2.00;;;;;20.17;47.71;101353.88;5070495;28;45013;-80
2022/07/03 01:17:03;;;;;;;;;1.00;1.00;;;;;20.13;47.51;101351.16;5070522;28;45750;-80
2022/07/03 01:19:42;;;;;;;;;1.50;1.00;;;;;19.92;47.53;101330.59;5070798;28;45678;-81
2022/07/03 01:22:31;;;;;;;;;1.00;1.00;;;;;20.02;47.80;101362.69;5070754;28;45520;-81
2022/07/03 01:24:56;;;;;;;;;2.00;2.00;;;;;19.98;48.32;101366.22;5070315;28;45038;-81
2022/07/03 01:27:43;;;;;;;;;1.00;1.00;;;;;19.66;48.72;101318.00;5070817;28;45183;-81
2022/07/03 01:30:11;;;;;;;;;2.50;2.00;;;;;19.72;48.38;101343.81;5050614;28;45222;-81
2022/07/03 01:32:45;;;;;;;;;1.50;1.50;;;;;19.76;48.30;101354.53;5049100;28;45037;-81
2022/07/03 01:35:15;;;;;;;;;1.00;1.00;;;;;19.76;48.17;101356.31;5070609;28;45445;-81
2022/07/03 01:37:41;;;;;;;;;2.00;1.00;;;;;19.78;48.41;101365.19;5070183;28;45948;-80
2022/07/03 01:40:07;;;;;;;;;2.00;1.25;;;;;19.66;49.15;101357.13;5052458;28;45250;-81
2022/07/03 01:42:34;;;;;;;;;0.75;0.75;;;;;19.49;49.33;101338.28;5068594;28;45147;-81
2022/07/03 01:45:02;;;;;;;;;1.50;1.00;;;;;19.45;49.70;101355.13;5070106;28;45195;-80
2022/07/03 01:47:29;;;;;;;;;2.00;1.75;;;;;19.21;49.76;101313.16;5070435;28;45952;-80
2022/07/03 01:49:55;;;;;;;;;2.00;2.00;;;;;19.40;50.10;101370.19;5070149;28;45639;-81
2022/07/03 01:52:21;;;;;;;;;1.75;1.75;;;;;19.06;50.49;101316.59;5070203;28;45010;-81
2022/07/03 01:54:48;;;;;;;;;1.75;1.75;;;;;19.22;50.99;101358.50;5069773;28;45089;-80
2022/07/03 01:57:14;;;;;;;;;1.75;1.75;;;;;19.08;50.51;101337.06;5069696;28;45169;-81
2022/07/03 01:59:40;;;;;;;;;1.00;1.00;;;;;19.07;50.57;101340.63;5069519;28;45762;-81
2022/07/03 02:02:24;;;;;;;;;1.00;1.00;;;;;19.04;50.95;101343.22;5070223;28;45175;-80
2022/07/03 02:04:49;;;;;;;;;1.00;1.00;;;;;19.06;51.00;101365.47;5069458;28;45016;-80
2022/07/03 02:07:28;;;;;;;;;0.00;0.00;;;;;19.03;50.55;101365.44;5069897;28;45589;-81
2022/07/03 02:10:03;;;;;;;;;1.50;1.00;;;;;18.89;50.66;101345.75;5069168;28;45193;-81
2022/07/03 02:12:38;;;;;;;;;2.25;2.00;;;;;18.91;51.04;101345.75;5069922;28;45174;-81
2022/07/03 02:15:06;;;;;;;;;1.25;1.25;;;;;18.57;51.68;101297.47;5069887;28;45119;-81
2022/07/03 02:17:44;;;;;;;;;2.00;2.00;;;;;18.68;51.58;101330.44;5069267;28;45722;-80
2022/07/03 02:20:10;;;;;;;;;1.00;1.00;;;;;18.60;51.27;101320.56;5069831;28;45262;-81
2022/07/03 02:22:51;;;;;;;;;2.00;2.00;;;;;18.80;51.21;101350.97;5069398;28;45104;-81
2022/07/03 02:25:30;;;;;;;;;1.00;1.00;;;;;18.49;51.31;101304.47;5069590;28;45136;-81
2022/07/03 02:28:03;;;;;;;;;2.00;1.00;;;;;18.72;51.40;101355.34;5064318;28;45846;-81
2022/07/03 02:30:29;;;;;;;;;2.00;1.00;;;;;18.49;51.66;101326.66;5056518;28;45477;-80
2022/07/03 02:32:58;;;;;;;;;3.00;2.25;;;;;18.62;51.39;101349.00;5069592;28;45183;-81
2022/07/03 02:35:33;;;;;;;;;1.00;1.00;;;;;18.67;51.37;101352.59;5050562;28;45139;-80
2022/07/03 02:38:01;;;;;;;;;1.50;1.25;;;;;18.72;51.60;101360.69;5068781;28;45543;-81
2022/07/03 02:40:32;;;;;;;;;1.50;1.50;;;;;18.63;52.13;101349.88;5069651;28;45316;-81
2022/07/03 02:43:00;;;;;;;;;2.00;2.00;;;;;18.67;51.90;101359.66;5069110;28;45155;-81
2022/07/03 02:45:33;;;;;;;;;1.00;1.00;;;;;18.47;52.44;101341.72;5069999;28;45070;-80
2022/07/03 02:48:18;;;;;;;;;1.00;1.00;;;;;18.60;51.85;101363.16;5068908;28;45188;-81
2022/07/03 02:50:46;;;;;;;;;2.00;2.00;;;;;18.50;52.76;101360.38;5068684;28;45149;-81
2022/07/03 02:53:35;;;;;;;;;2.00;2.00;;;;;18.56;52.61;101372.84;5069167;28;45376;-81
2022/07/03 02:56:27;;;;;;;;;1.00;1.00;;;;;18.36;53.01;101350.44;5069594;28;45112;-82
2022/07/03 02:59:05;;;;;;;;;2.00;1.75;;;;;18.46;52.20;101374.50;5068903;28;45405;-81
2022/07/03 03:01:33;;;;;;;;;1.00;1.00;;;;;18.46;52.49;101370.97;5069545;28;45585;-81
2022/07/03 03:04:09;;;;;;;;;1.00;1.00;;;;;18.41;52.71;101372.69;5068469;28;45379;-81
2022/07/03 03:06:37;;;;;;;;;1.25;1.25;;;;;18.31;53.39;101371.66;5050497;28;45255;-80
2022/07/03 03:09:07;;;;;;;;;2.00;2.00;;;;;18.17;53.42;101350.19;5068345;28;45380;-81
2022/07/03 03:11:42;;;;;;;;;2.00;2.00;;;;;18.25;53.55;101384.91;5068717;28;45325;-81
2022/07/03 03:14:12;;;;;;;;;1.75;1.75;;;;;18.25;53.38;101384.91;5069450;28;45165;-81
2022/07/03 03:16:45;;;;;;;;;2.25;2.25;;;;;18.03;53.40;101349.13;5068746;28;45012;-81
2022/07/03 03:19:11;;;;;;;;;2.75;2.00;;;;;18.07;53.48;101366.00;5068577;28;45660;-81
2022/07/03 03:21:47;;;;;;;;;2.75;2.75;;;;;18.09;54.12;101380.25;5046640;28;45623;-80
2022/07/03 03:24:13;;;;;;;;;3.75;2.00;;;;;18.00;53.30;101367.69;5048761;28;45838;-80
2022/07/03 03:26:39;;;;;;;;;2.75;1.75;;;;;18.07;53.67;101382.88;5062789;28;45245;-80
2022/07/03 03:29:04;;;;;;;;;3.00;2.25;;;;;18.02;53.67;101380.13;5068497;28;46459;-80
2022/07/03 03:31:31;;;;;;;;;3.00;2.00;;;;;17.92;54.20;101359.59;5068314;28;45127;-80
2022/07/03 03:33:59;;;;;;;;;2.25;2.00;;;;;17.91;53.92;101371.13;5068218;28;45136;-80
2022/07/03 03:36:24;;;;;;;;;1.75;1.75;;;;;17.76;53.84;101338.97;5068630;28;45028;-81
2022/07/03 03:38:50;;;;;;;;;2.75;1.75;;;;;17.94;54.35;101355.22;5067655;28;45157;-80
2022/07/03 03:41:16;;;;;;;;;2.75;1.75;;;;;17.78;54.04;101326.59;5050386;28;45502;-81
2022/07/03 03:43:42;;;;;;;;;1.75;1.75;;;;;18.01;54.39;101377.47;5050251;28;44946;-81
2022/07/03 03:46:07;;;;;;;;;2.25;2.25;;;;;17.83;53.92;101350.59;5068970;28;44893;-80
2022/07/03 03:48:33;;;;;;;;;3.00;0.75;;;;;17.96;54.05;101380.06;5067778;28;45759;-80
2022/07/03 03:51:04;;;;;;;;;1.75;1.50;;;;;17.99;54.18;101387.19;5068047;28;44998;-81
2022/07/03 03:53:30;;;;;;;;;2.25;2.00;;;;;17.74;54.01;101344.28;5067582;28;45216;-80
2022/07/03 03:56:10;;;;;;;;;1.75;1.75;;;;;17.95;54.57;101383.59;5067977;28;45057;-81
2022/07/03 03:58:37;;;;;;;;;2.50;2.00;;;;;17.88;54.49;101381.72;5066597;28;45534;-81
2022/07/03 04:01:04;;;;;;;;;1.75;1.75;;;;;17.72;54.76;101363.69;5067948;28;45231;-80
2022/07/03 04:03:30;;;;;;;;;0.75;0.75;;;;;17.78;55.01;101371.78;5067604;28;45127;-81
2022/07/03 04:05:56;;;;;;;;;2.25;1.50;;;;;17.78;54.75;101383.34;5044760;28;45233;-81
2022/07/03 04:08:23;;;;;;;;;1.00;0.75;;;;;17.67;54.83;101371.59;5051414;28;45420;-81
2022/07/03 04:10:49;;;;;;;;;1.00;1.00;;;;;17.76;54.40;101385.06;5050880;28;45184;-81
2022/07/03 04:13:16;;;;;;;;;2.25;2.00;;;;;17.65;54.85;101367.16;5055719;28;45093;-81
2022/07/03 04:15:42;;;;;;;;;2.75;2.75;;;;;17.76;54.38;101401.03;5053418;28;45205;-79
2022/07/03 04:18:07;;;;;;;;;1.50;1.50;;;;;17.77;54.89;101404.59;5071023;28;45663;-80
2022/07/03 04:20:33;;;;;;;;;2.00;2.00;;;;;17.53;54.95;101363.41;5049785;28;45291;-81
2022/07/03 04:22:59;;;;;;;;;2.50;2.50;;;;;17.69;54.98;101392.91;5052997;28;45252;-81
2022/07/03 04:25:24;;;;;;;;;1.50;1.25;;;;;17.54;55.43;101367.88;5053542;28;45137;-81
2022/07/03 04:27:50;;;;;;;;;1.50;1.50;;;;;17.67;55.48;101386.66;5053035;28;47133;-80
2022/07/03 04:30:15;;;;;;;;;2.50;2.00;;;;;17.65;55.58;101386.66;5071494;28;45141;-80
2022/07/03 04:32:41;;;;;;;;;2.25;1.50;;;;;17.76;55.11;101402.78;5070691;28;45223;-80
2022/07/03 04:35:07;;;;;;;;;0.25;0.00;;;;;17.81;55.05;101410.84;5071187;28;45013;-81
2022/07/03 04:37:32;;;;;;;;;1.75;1.75;;;;;17.68;55.73;101402.63;5070875;28;45918;-80
2022/07/03 04:39:57;;;;;;;;;1.00;1.00;;;;;17.72;55.15;101400.91;5071325;28;45549;-81
2022/07/03 04:42:23;;;;;;;;;2.00;1.00;;;;;17.66;55.62;101396.41;5071742;28;45151;-80
2022/07/03 04:44:48;;;;;;;;;2.25;1.75;;;;;17.75;55.63;101409.00;5071253;28;45419;-80
2022/07/03 04:47:14;;;;;;;;;3.50;2.25;;;;;17.81;55.71;101410.84;5070973;28;45567;-80
2022/07/03 04:49:40;;;;;;;;;2.25;1.75;;;;;17.84;55.34;101408.25;5070933;28;45070;-80
2022/07/03 04:52:06;;;;;;;;;2.00;2.00;;;;;17.64;55.46;101376.00;5071162;28;45002;-80
2022/07/03 04:54:31;;;;;;;;;1.50;1.50;;;;;17.71;55.42;101383.19;5070915;28;45150;-80
2022/07/03 04:56:56;;;;;;;;;1.50;1.50;;;;;17.81;56.00;101385.16;5071096;28;45723;-80
2022/07/03 04:59:22;;;;;;;;;2.00;2.00;;;;;17.77;56.02;101367.34;5071785;28;45208;-81
2022/07/03 05:01:49;;;;;;;;;1.00;0.75;;;;;17.92;55.38;101393.28;5070485;28;45191;-80
2022/07/03 05:04:15;;;;;;;;;1.75;1.75;;;;;17.98;55.49;101407.59;5052778;28;45467;-81
2022/07/03 05:06:40;;;;;;;;;2.50;2.25;;;;;17.86;55.57;101375.47;5070305;28;46270;-81
2022/07/03 05:09:06;;;;;;;;;1.00;1.00;;;;;18.16;55.88;101424.66;5070510;28;45072;-81
2022/07/03 05:11:31;;;;;;;;;1.75;1.00;;;;;18.06;54.76;101405.03;5070475;28;45070;-81
2022/07/03 05:13:56;;;;;;;;;0.75;0.75;;;;;18.25;54.78;101419.50;5070737;28;45421;-80
2022/07/03 05:16:22;;;;;;;;;1.25;1.25;;;;;18.13;54.80;101396.28;5070651;28;45427;-81
2022/07/03 05:18:47;;;;;;;;;0.75;0.75;;;;;18.22;54.39;101406.13;5070102;28;45013;-81
2022/07/03 05:21:12;;;;;;;;;1.00;1.00;;;;;18.31;54.10;101403.59;5071241;28;45200;-80
2022/07/03 05:23:38;;;;;;;;;1.75;1.00;;;;;18.30;54.23;101399.16;5070199;28;45211;-80
2022/07/03 05:26:03;;;;;;;;;1.00;1.00;;;;;18.36;54.30;101393.00;5069726;28;45585;-80
2022/07/03 05:28:28;;;;;;;;;0.50;0.50;;;;;18.56;53.71;101424.34;5051531;28;45197;-80
2022/07/03 05:30:53;;;;;;;;;0.75;0.75;;;;;18.40;53.69;101384.19;5069891;28;45084;-80
2022/07/03 05:33:19;;;;;;;;;1.00;1.00;;;;;18.46;53.80;101393.16;5051959;28;45167;-80
2022/07/03 05:35:45;;;;;;;;;1.50;1.50;;;;;18.51;53.24;101402.09;5070294;28;45820;-80
2022/07/03 05:38:10;;;;;;;;;0.75;0.75;;;;;18.58;53.84;101411.06;5052336;28;44985;-80
2022/07/03 05:40:35;;;;;;;;;2.25;1.75;;;;;18.60;53.60;101408.41;5070246;28;44969;-80
2022/07/03 05:43:01;;;;;;;;;1.00;0.75;;;;;18.78;53.64;101432.66;5070204;28;45092;-80
2022/07/03 05:45:26;;;;;;;;;0.50;0.25;;;;;18.53;53.77;101386.16;5070616;28;46007;-81
2022/07/03 05:47:51;;;;;;;;;1.25;1.25;;;;;18.74;53.33;101413.06;5051129;28;45066;-80
2022/07/03 05:50:17;;;;;;;;;1.00;1.00;;;;;18.89;53.48;101433.66;5070337;28;44888;-81
2022/07/03 05:52:42;;;;;;;;;0.00;0.00;;;;;18.75;53.69;101411.28;5069651;28;45223;-81
2022/07/03 05:55:08;;;;;;;;;1.00;1.00;;;;;18.88;53.56;101431.88;5069586;28;45366;-81
2022/07/03 05:57:33;;;;;;;;;0.50;0.00;;;;;18.84;53.83;101410.50;5051850;28;45198;-81
2022/07/03 05:59:59;;;;;;;;;1.00;0.75;;;;;18.89;53.46;101420.34;5069859;28;45091;-81
2022/07/03 06:02:24;;;;;;;;;1.25;1.25;;;;;18.84;54.22;101399.84;5069896;28;45021;-81
2022/07/03 06:04:50;;;;;;;;;1.00;1.00;;;;;19.06;53.21;101429.41;5069500;28;45797;-80
2022/07/03 06:07:16;;;;;;;;;1.50;1.00;;;;;18.89;54.25;101404.34;5045903;28;45643;-80
2022/07/03 06:09:43;;;;;;;;;1.00;1.00;;;;;19.01;54.03;101417.81;5033555;28;45582;-79
2022/07/03 06:12:08;;;;;;;;;1.00;1.00;;;;;19.11;54.00;101434.78;5049044;28;45183;-81
2022/07/03 06:14:33;;;;;;;;;1.00;1.00;;;;;19.12;53.85;101419.72;5047850;28;45386;-81
2022/07/03 06:16:59;;;;;;;;;1.00;1.00;;;;;19.08;53.76;101410.78;5037189;28;45393;-82
2022/07/03 06:19:24;;;;;;;;;1.00;1.00;;;;;19.19;54.05;101429.53;5014789;28;45767;-80
2022/07/03 06:21:49;;;;;;;;;1.00;1.00;;;;;19.29;53.70;101448.28;5050804;28;45781;-81
2022/07/03 06:24:15;;;;;;;;;1.50;1.50;;;;;19.32;53.71;101439.44;5052012;28;45359;-81
2022/07/03 06:26:40;;;;;;;;;2.00;1.50;;;;;19.33;53.59;101444.78;5051287;28;45343;-81
2022/07/03 06:29:06;;;;;;;;;2.00;2.00;;;;;19.26;53.82;101434.03;5050237;28;45391;-80
2022/07/03 06:31:31;;;;;;;;;1.00;1.00;;;;;19.27;54.09;101436.75;5050634;28;45491;-80
2022/07/03 06:33:57;;;;;;;;;1.00;1.00;;;;;19.33;54.38;101438.56;5049751;28;45382;-81
2022/07/03 06:36:22;;;;;;;;;2.00;2.00;;;;;19.32;54.36;101432.34;5052432;28;46368;-81
2022/07/03 06:38:47;;;;;;;;;2.00;2.00;;;;;19.27;54.62;101422.53;5050231;28;45486;-80
2022/07/03 06:41:13;;;;;;;;;2.00;2.00;;;;;19.35;54.38;101428.78;5049125;28;45539;-81
2022/07/03 06:43:39;;;;;;;;;2.00;2.00;;;;;19.44;54.66;101444.00;5031650;28;46284;-80
2022/07/03 06:46:04;;;;;;;;;1.50;1.00;;;;;19.28;54.06;101408.31;5049901;28;45883;-80
2022/07/03 06:48:29;;;;;;;;;3.00;2.50;;;;;19.34;54.46;101413.69;5050362;28;45422;-80
2022/07/03 06:50:55;;;;;;;;;2.25;2.25;;;;;19.50;54.52;101431.59;5050129;28;45392;-80
2022/07/03 06:53:20;;;;;;;;;2.75;2.75;;;;;19.59;54.08;101446.78;5050317;28;45889;-81
2022/07/03 06:55:45;;;;;;;;;2.00;1.50;;;;;19.57;53.71;101440.56;5049733;28;45508;-80
2022/07/03 06:58:11;;;;;;;;;2.75;2.75;;;;;19.64;54.61;101439.75;5051536;28;45445;-80
2022/07/03 07:00:38;;;;;;;;;2.25;2.25;;;;;19.69;54.31;101446.03;5031538;28;45370;-81
2022/07/03 07:03:04;;;;;;;;;3.00;3.00;;;;;19.59;54.46;101429.06;5050450;28;45468;-81
2022/07/03 07:05:29;;;;;;;;;4.00;3.25;;;;;19.73;54.39;101454.97;5052506;28;45589;-81
2022/07/03 07:07:54;;;;;;;;;4.75;4.50;;;;;19.47;54.20;101404.94;5031830;28;45486;-81
2022/07/03 07:10:19;;;;;;;;;3.25;3.25;;;;;19.66;54.09;101432.69;5032356;28;45751;-81
2022/07/03 07:12:45;;;;;;;;;3.00;3.00;;;;;19.68;54.57;101433.59;5031841;28;47182;-81
2022/07/03 07:15:10;;;;;;;;;5.50;4.75;;;;;19.79;53.78;101445.22;5051506;28;45337;-80
2022/07/03 07:17:36;;;;;;;;;3.00;3.00;;;;;19.72;54.08;101432.72;5045904;28;45671;-80
2022/07/03 07:20:01;;;;;;;;;2.25;2.25;;;;;19.68;54.06;101424.69;5042308;28;45613;-80
2022/07/03 07:22:26;;;;;;;;;2.75;2.75;;;;;19.85;53.46;101460.38;5049118;28;45410;-79
2022/07/03 07:24:52;;;;;;;;;3.25;3.00;;;;;19.75;53.71;101443.44;5029322;28;45601;-80
2022/07/03 07:27:18;;;;;;;;;4.00;3.25;;;;;19.72;54.38;101426.50;5028780;28;45412;-80
2022/07/03 07:29:43;;;;;;;;;3.00;3.00;;;;;19.78;53.74;101432.78;5049306;28;45473;-80
2022/07/03 07:32:08;;;;;;;;;3.00;2.00;;;;;20.02;54.19;101471.19;5045801;28;45844;-80
2022/07/03 07:34:33;;;;;;;;;2.75;2.50;;;;;19.89;53.83;101435.50;5052748;28;45399;-80
2022/07/03 07:36:59;;;;;;;;;3.00;3.00;;;;;20.12;53.86;101469.50;5049417;28;45518;-80
2022/07/03 07:39:24;;;;;;;;;2.50;2.00;;;;;20.07;53.37;101459.66;5047814;28;45510;-79
2022/07/03 07:41:49;;;;;;;;;3.00;3.00;;;;;20.09;53.47;101455.22;5047907;28;46613;-80
2022/07/03 07:44:15;;;;;;;;;3.00;3.00;;;;;20.17;53.19;101465.97;5032597;28;45493;-80
2022/07/03 07:46:40;;;;;;;;;3.00;3.00;;;;;20.16;53.09;101461.53;5051012;28;45636;-80
2022/07/03 07:49:06;;;;;;;;;3.00;3.00;;;;;20.26;52.90;101474.03;5068004;28;45183;-80
2022/07/03 07:51:31;;;;;;;;;3.00;3.00;;;;;20.24;53.08;101464.22;5068477;28;45991;-79
2022/07/03 07:53:57;;;;;;;;;2.00;2.00;;;;;20.23;52.92;101463.34;5067688;28;45150;-80
2022/07/03 07:56:24;;;;;;;;;3.50;3.50;;;;;20.17;53.28;101449.06;5068974;28;45208;-80
2022/07/03 07:58:51;;;;;;;;;2.75;2.75;;;;;20.13;52.99;101431.25;5066857;28;45562;-86
2022/07/03 08:06:44;;;;;;;;;2.00;2.00;;;;;20.17;52.36;101417.94;5068857;28;45301;-88
2022/07/03 08:09:09;;;;;;;;;3.00;3.00;;;;;20.09;52.81;101407.19;5050688;28;45323;-86
2022/07/03 08:11:34;;;;;;;;;3.50;2.00;;;;;20.04;53.12;101398.25;5050979;28;47342;-87
2022/07/03 08:14:00;;;;;;;;;2.00;2.00;;;;;20.47;52.83;101467.97;5050171;28;45164;-85
2022/07/03 08:16:25;;;;;;;;;1.75;1.75;;;;;20.24;51.51;101421.50;5065593;28;45594;-84
2022/07/03 08:18:52;;;;;;;;;1.00;1.00;;;;;20.48;51.91;101458.16;5048958;28;45199;-91
2022/07/03 08:21:17;;;;;;;;;3.00;3.00;;;;;20.54;51.68;101469.81;5048354;28;45389;-92
2022/07/03 08:23:43;;;;;;;;;2.00;2.00;;;;;20.20;51.73;101399.28;5047611;28;45053;-87
2022/07/03 08:26:08;;;;;;;;;4.00;4.00;;;;;20.47;51.96;101437.69;5048732;28;45065;-92
2022/07/03 08:28:33;;;;;;;;;2.00;2.00;;;;;20.21;51.62;101390.38;5040477;28;45041;-92
2022/07/03 08:30:59;;;;;;;;;3.00;3.00;;;;;20.29;51.96;101399.28;5038708;28;47229;-92
2022/07/03 08:33:24;;;;;;;;;2.50;1.50;;;;;20.35;51.93;101406.47;5049484;28;45367;-91
2022/07/03 08:35:50;;;;;;;;;2.00;2.00;;;;;20.68;52.22;101448.47;5049161;28;45310;-91
2022/07/03 08:38:15;;;;;;;;;2.00;2.00;;;;;20.30;51.73;101378.84;5068196;28;45241;-92
2022/07/03 08:40:43;;;;;;;;;2.25;2.25;;;;;20.68;51.38;101440.47;5067938;28;45807;-87
2022/07/03 08:43:08;;;;;;;;;2.50;2.50;;;;;20.51;51.55;101404.78;5046844;28;45565;-89
2022/07/03 08:45:37;;;;;;;;;2.25;2.00;;;;;20.66;51.29;101411.97;5047784;28;45230;-86
2022/07/03 08:48:04;;;;;;;;;2.25;2.25;;;;;20.64;51.24;101406.63;5049423;28;45289;-93
2022/07/03 08:50:33;;;;;;;;;2.25;2.25;;;;;20.63;51.82;101394.13;5067897;28;45444;-88
2022/07/03 08:52:59;;;;;;;;;4.00;3.00;;;;;21.01;51.51;101452.16;5068877;28;45551;-89
2022/07/03 08:55:24;;;;;;;;;1.00;1.00;;;;;20.89;51.76;101422.75;5056650;28;45344;-88
2022/07/03 08:57:50;;;;;;;;;2.00;2.00;;;;;20.95;50.96;101431.66;5032589;28;45428;-88
2022/07/03 09:00:18;;;;;;;;;2.25;2.25;;;;;20.79;50.82;101385.31;5032855;28;46319;-91
2022/07/03 09:02:46;;;;;;;;;2.25;2.00;;;;;21.27;51.45;101444.19;5032689;28;46363;-90
2022/07/03 09:05:13;;;;;;;;;2.25;2.00;;;;;21.12;50.96;101399.63;5032870;28;45731;-89
2022/07/03 09:07:41;;;;;;;;;2.50;2.50;;;;;21.30;50.48;101399.69;5039389;28;45385;-91
2022/07/03 09:10:24;;;;;;;;;2.00;2.00;;;;;21.75;50.29;101442.50;5021671;28;47274;-90
2022/07/03 09:12:50;;;;;;;;;2.00;1.50;;;;;21.43;50.07;101362.25;5026542;28;45616;-89
2022/07/03 09:15:16;;;;;;;;;1.50;1.00;;;;;21.56;50.04;101364.91;5019967;28;45502;-87
2022/07/03 09:17:58;;;;;;;;;2.00;2.00;;;;;21.53;49.55;101366.72;5033220;28;45916;-86
2022/07/03 09:20:32;;;;;;;;;3.50;3.50;;;;;21.79;49.40;101426.44;5018565;28;47998;-84
2022/07/03 09:23:14;;;;;;;;;2.25;2.00;;;;;21.56;49.68;101402.38;5029661;28;45899;-83
2022/07/03 09:25:53;;;;;;;;;3.00;2.00;;;;;21.80;49.70;101443.38;5020617;28;45855;-84
2022/07/03 09:28:21;;;;;;;;;2.50;2.00;;;;;21.72;49.94;101415.72;5029563;28;45600;-84
2022/07/03 09:30:57;;;;;;;;;1.75;1.75;;;;;21.67;50.07;101404.13;5043046;28;46264;-88
2022/07/03 09:33:22;;;;;;;;;1.75;1.75;;;;;21.78;49.80;101399.69;5038673;28;45420;-91
2022/07/03 09:35:53;;;;;;;;;2.00;1.75;;;;;21.96;49.37;101396.97;5038739;28;45688;-85
2022/07/03 09:38:18;;;;;;;;;2.00;1.50;;;;;22.47;49.21;101437.97;5032462;28;45289;-83
2022/07/03 09:40:51;;;;;;;;;2.00;1.25;;;;;22.63;48.36;101437.00;5060443;28;45615;-86
2022/07/03 09:43:30;;;;;;;;;2.00;2.00;;;;;22.55;47.78;101405.75;5054429;28;45143;-86
2022/07/03 09:46:02;;;;;;;;;2.00;2.00;;;;;22.53;47.59;101392.38;5054368;28;45156;-88
2022/07/03 09:48:31;;;;;;;;;1.50;1.50;;;;;22.78;48.38;101440.50;5048967;28;46157;-90
2022/07/03 09:51:15;;;;;;;;;2.75;1.50;;;;;22.83;48.24;101442.25;5039857;28;47671;-88
2022/07/03 09:54:01;;;;;;;;;2.00;2.00;;;;;22.58;48.22;101408.44;5058898;28;45501;-88
2022/07/03 09:56:33;;;;;;;;;1.25;1.25;;;;;22.62;48.59;101411.09;5052322;28;45036;-85
2022/07/03 09:59:14;;;;;;;;;2.00;2.00;;;;;22.65;47.99;101408.38;5061268;28;45363;-86
2022/07/03 10:01:42;;;;;;;;;2.00;2.00;;;;;22.74;47.68;101407.47;5048356;28;46937;-86
2022/07/03 10:04:21;;;;;;;;;2.00;2.00;;;;;22.85;47.88;101394.88;5049349;28;45481;-85
2022/07/03 10:06:53;;;;;;;;;1.50;1.50;;;;;23.14;47.10;101397.44;5044524;28;45206;-88
2022/07/03 10:09:21;;;;;;;;;2.25;2.00;;;;;23.47;47.48;101440.13;5045928;28;45161;-87
2022/07/03 10:11:47;;;;;;;;;2.00;2.00;;;;;23.38;46.68;101441.97;5037229;28;46803;-85
2022/07/03 10:14:16;;;;;;;;;1.50;1.50;;;;;23.25;46.76;101417.91;5047025;28;45490;-87
2022/07/03 10:16:42;;;;;;;;;2.00;2.00;;;;;23.25;46.64;101415.22;5054349;28;45152;-85
2022/07/03 10:19:12;;;;;;;;;2.00;2.00;;;;;23.36;46.81;101410.69;5033972;28;45127;-88
2022/07/03 10:21:39;;;;;;;;;2.00;1.00;;;;;23.85;47.28;101455.97;5045261;28;48618;-89
2022/07/03 10:24:05;;;;;;;;;1.75;1.75;;;;;23.64;46.58;101385.47;5053454;28;45441;-92
2022/07/03 10:26:31;;;;;;;;;2.00;2.00;;;;;23.98;46.81;101428.06;5058157;28;45442;-90
2022/07/03 10:29:01;;;;;;;;;1.25;1.25;;;;;23.86;46.10;101402.25;5038036;28;45649;-89
2022/07/03 10:31:28;;;;;;;;;2.00;2.00;;;;;23.74;46.49;101401.47;5040226;28;48372;-90
2022/07/03 10:33:53;;;;;;;;;1.75;1.75;;;;;23.80;46.28;101434.53;5049457;28;45180;-90
2022/07/03 10:36:20;;;;;;;;;2.50;2.50;;;;;23.63;46.56;101421.22;5049814;28;45280;-86
2022/07/03 10:38:48;;;;;;;;;2.00;2.00;;;;;23.73;46.32;101426.53;5066650;28;45655;-92
2022/07/03 10:46:53;;;;;;;;;3.75;2.00;;;;;23.95;45.95;101441.56;5055220;28;45375;-87
2022/07/03 10:49:18;;;;;;;;;3.25;3.25;;;;;23.89;45.79;101434.44;5040340;28;45345;-87
2022/07/03 10:51:44;;;;;;;;;3.25;3.25;;;;;23.96;46.09;101451.38;5055201;28;46198;-83
2022/07/03 10:54:29;;;;;;;;;3.00;3.00;;;;;23.89;45.69;101449.63;5052406;28;45304;-87
2022/07/03 10:56:57;;;;;;;;;3.00;3.00;;;;;23.88;45.92;101466.66;5027076;28;45446;-85
2022/07/03 10:59:23;;;;;;;;;3.00;3.00;;;;;23.70;45.78;101450.72;5031284;28;45683;-87
2022/07/03 11:01:48;;;;;;;;;4.00;4.00;;;;;23.73;46.18;101465.00;5017332;28;48074;-87
2022/07/03 11:04:14;;;;;;;;;3.50;3.00;;;;;23.52;46.91;101432.94;5017155;28;45623;-86
2022/07/03 11:06:42;;;;;;;;;4.00;4.00;;;;;23.75;45.75;101471.25;5033213;28;45545;-85
2022/07/03 11:09:12;;;;;;;;;2.00;2.00;;;;;23.73;45.94;101465.00;5047147;28;45599;-87
2022/07/03 11:11:57;;;;;;;;;3.00;3.00;;;;;23.62;46.34;101453.44;5049468;28;45485;-84
2022/07/03 11:14:26;;;;;;;;;4.25;4.25;;;;;23.74;45.62;101466.75;5025562;28;45958;-86
2022/07/03 11:17:20;;;;;;;;;4.25;4.00;;;;;23.93;45.21;101457.66;5044351;28;45911;-84
2022/07/03 11:20:23;;;;;;;;;3.00;3.00;;;;;24.09;44.85;101453.06;5050335;28;45359;-86
2022/07/03 11:23:03;;;;;;;;;5.25;3.25;;;;;24.06;44.39;101445.00;5044327;28;45670;-82
2022/07/03 11:25:38;;;;;;;;;8.75;8.75;;;;;24.06;44.52;101415.47;5028212;28;45903;-87
2022/07/03 11:28:03;;;;;;;;;6.50;6.00;;;;;24.47;44.70;101461.63;5027214;28;45505;-86
2022/07/03 11:30:31;;;;;;;;;4.25;4.25;;;;;24.48;44.10;101429.34;5035309;28;51858;-84
2022/07/03 11:32:57;;;;;;;;;5.00;5.00;;;;;24.72;44.83;101444.28;5063252;28;46206;-84
2022/07/03 11:35:54;;;;;;;;;4.25;4.00;;;;;24.69;43.63;101445.25;5061357;28;44981;-86
2022/07/03 11:38:22;;;;;;;;;3.75;3.75;;;;;24.64;43.75;101435.47;5047884;28;45304;-83
2022/07/03 11:40:51;;;;;;;;;3.00;3.00;;;;;24.78;43.30;101437.94;5054396;28;45603;-82
2022/07/03 11:43:17;;;;;;;;;5.00;4.75;;;;;24.91;43.67;101427.00;5047403;28;45544;-83